sensor_id;sensor_type;location;lat;lon;timestamp;pressure;altitude;pressure_sealevel;temperature;humidity
15634;BME280;14654;48.898;8.308;2023-07-13T00:00:10;100263.00;;;20.29;89.08
15634;BME280;14654;48.898;8.308;2023-07-13T00:02:36;100264.88;;;20.27;89.43
15634;BME280;14654;48.898;8.308;2023-07-13T00:05:02;100262.41;;;20.23;89.12
15634;BME280;14654;48.898;8.308;2023-07-13T00:07:27;100270.44;;;20.20;89.34
15634;BME280;14654;48.898;8.308;2023-07-13T00:09:52;100263.56;;;20.18;90.19
15634;BME280;14654;48.898;8.308;2023-07-13T00:12:30;100273.31;;;20.16;90.59
15634;BME280;14654;48.898;8.308;2023-07-13T00:14:58;100273.59;;;20.09;90.71
15634;BME280;14654;48.898;8.308;2023-07-13T00:17:24;100270.19;;;20.07;89.02
15634;BME280;14654;48.898;8.308;2023-07-13T00:19:49;100271.28;;;20.03;87.96
15634;BME280;14654;48.898;8.308;2023-07-13T00:22:15;100270.56;;;20.00;87.77
15634;BME280;14654;48.898;8.308;2023-07-13T00:24:40;100274.97;;;19.99;89.06
15634;BME280;14654;48.898;8.308;2023-07-13T00:27:08;100277.75;;;19.96;88.60
15634;BME280;14654;48.898;8.308;2023-07-13T00:29:34;100275.22;;;19.94;89.12
15634;BME280;14654;48.898;8.308;2023-07-13T00:32:00;100277.06;;;19.92;88.93
15634;BME280;14654;48.898;8.308;2023-07-13T00:34:26;100271.00;;;19.90;88.97
15634;BME280;14654;48.898;8.308;2023-07-13T00:36:51;100274.66;;;19.88;88.63
15634;BME280;14654;48.898;8.308;2023-07-13T00:39:16;100266.78;;;19.86;88.15
15634;BME280;14654;48.898;8.308;2023-07-13T00:41:42;100268.59;;;19.86;89.02
15634;BME280;14654;48.898;8.308;2023-07-13T00:44:13;100272.03;;;19.86;89.93
15634;BME280;14654;48.898;8.308;2023-07-13T00:46:39;100279.09;;;19.86;90.51
15634;BME280;14654;48.898;8.308;2023-07-13T00:49:07;100277.38;;;19.85;90.44
15634;BME280;14654;48.898;8.308;2023-07-13T00:51:40;100266.09;;;19.83;88.58
15634;BME280;14654;48.898;8.308;2023-07-13T00:54:14;100269.78;;;19.78;87.99
15634;BME280;14654;48.898;8.308;2023-07-13T00:56:43;100273.41;;;19.76;87.53
15634;BME280;14654;48.898;8.308;2023-07-13T00:59:10;100276.97;;;19.75;88.05
15634;BME280;14654;48.898;8.308;2023-07-13T01:01:36;100270.78;;;19.76;89.80
15634;BME280;14654;48.898;8.308;2023-07-13T01:04:03;100269.94;;;19.75;90.46
15634;BME280;14654;48.898;8.308;2023-07-13T01:06:28;100269.19;;;19.73;90.74
15634;BME280;14654;48.898;8.308;2023-07-13T01:08:54;100268.44;;;19.70;91.09
15634;BME280;14654;48.898;8.308;2023-07-13T01:11:21;100266.84;;;19.67;91.63
15634;BME280;14654;48.898;8.308;2023-07-13T01:13:47;100271.38;;;19.63;91.89
15634;BME280;14654;48.898;8.308;2023-07-13T01:16:19;100254.91;;;19.60;92.51
15634;BME280;14654;48.898;8.308;2023-07-13T01:18:47;100251.66;;;19.55;93.00
15634;BME280;14654;48.898;8.308;2023-07-13T01:21:12;100258.75;;;19.53;93.27
15634;BME280;14654;48.898;8.308;2023-07-13T01:23:37;100258.06;;;19.49;93.30
15634;BME280;14654;48.898;8.308;2023-07-13T01:26:02;100267.00;;;19.45;93.18
15634;BME280;14654;48.898;8.308;2023-07-13T01:28:28;100269.88;;;19.39;93.16
15634;BME280;14654;48.898;8.308;2023-07-13T01:30:56;100260.66;;;19.30;92.86
15634;BME280;14654;48.898;8.308;2023-07-13T01:33:21;100259.31;;;19.21;93.50
15634;BME280;14654;48.898;8.308;2023-07-13T01:35:47;100262.34;;;19.12;93.58
15634;BME280;14654;48.898;8.308;2023-07-13T01:38:18;100272.28;;;19.05;93.88
15634;BME280;14654;48.898;8.308;2023-07-13T01:40:44;100274.25;;;19.00;94.20
15634;BME280;14654;48.898;8.308;2023-07-13T01:43:09;100272.63;;;18.97;94.84
15634;BME280;14654;48.898;8.308;2023-07-13T01:45:35;100268.28;;;18.96;95.75
15634;BME280;14654;48.898;8.308;2023-07-13T01:48:00;100269.25;;;18.94;96.13
15634;BME280;14654;48.898;8.308;2023-07-13T01:50:26;100276.31;;;18.92;96.49
15634;BME280;14654;48.898;8.308;2023-07-13T01:52:52;100275.66;;;18.86;95.75
15634;BME280;14654;48.898;8.308;2023-07-13T01:55:17;100276.88;;;18.79;95.82
15634;BME280;14654;48.898;8.308;2023-07-13T01:57:42;100271.84;;;18.74;96.41
15634;BME280;14654;48.898;8.308;2023-07-13T02:00:09;100272.16;;;18.67;96.31
15634;BME280;14654;48.898;8.308;2023-07-13T02:02:35;100272.50;;;18.59;96.51
15634;BME280;14654;48.898;8.308;2023-07-13T02:05:00;100271.91;;;18.52;96.77
15634;BME280;14654;48.898;8.308;2023-07-13T02:07:26;100274.84;;;18.45;97.00
15634;BME280;14654;48.898;8.308;2023-07-13T02:09:51;100266.31;;;18.39;97.35
15634;BME280;14654;48.898;8.308;2023-07-13T02:12:16;100267.44;;;18.34;97.62
15634;BME280;14654;48.898;8.308;2023-07-13T02:14:42;100268.47;;;18.30;97.95
15634;BME280;14654;48.898;8.308;2023-07-13T02:17:09;100265.13;;;18.26;97.40
15634;BME280;14654;48.898;8.308;2023-07-13T02:19:35;100267.78;;;18.24;97.73
15634;BME280;14654;48.898;8.308;2023-07-13T02:22:01;100273.19;;;18.21;98.05
15634;BME280;14654;48.898;8.308;2023-07-13T02:24:26;100265.50;;;18.17;97.47
15634;BME280;14654;48.898;8.308;2023-07-13T02:26:52;100264.88;;;18.10;97.40
15634;BME280;14654;48.898;8.308;2023-07-13T02:29:18;100259.91;;;18.04;97.16
15634;BME280;14654;48.898;8.308;2023-07-13T02:31:43;100264.41;;;18.00;97.90
15634;BME280;14654;48.898;8.308;2023-07-13T02:34:08;100265.38;;;17.97;98.71
15634;BME280;14654;48.898;8.308;2023-07-13T02:36:34;100269.81;;;17.95;98.98
15634;BME280;14654;48.898;8.308;2023-07-13T02:39:04;100268.97;;;17.95;99.69
15634;BME280;14654;48.898;8.308;2023-07-13T02:41:30;100264.69;;;17.92;100.00
15634;BME280;14654;48.898;8.308;2023-07-13T02:43:58;100263.97;;;17.89;100.00
15634;BME280;14654;48.898;8.308;2023-07-13T02:46:29;100264.25;;;17.81;100.00
15634;BME280;14654;48.898;8.308;2023-07-13T02:48:55;100269.81;;;17.73;100.00
15634;BME280;14654;48.898;8.308;2023-07-13T02:51:20;100266.53;;;17.68;100.00
15634;BME280;14654;48.898;8.308;2023-07-13T02:53:45;100273.63;;;17.64;99.89
15634;BME280;14654;48.898;8.308;2023-07-13T02:56:11;100259.75;;;17.62;100.00
15634;BME280;14654;48.898;8.308;2023-07-13T02:58:36;100262.34;;;17.62;100.00
15634;BME280;14654;48.898;8.308;2023-07-13T03:01:11;100270.22;;;17.62;100.00
15634;BME280;14654;48.898;8.308;2023-07-13T03:03:38;100264.25;;;17.59;100.00
15634;BME280;14654;48.898;8.308;2023-07-13T03:06:04;100264.38;;;17.56;100.00
15634;BME280;14654;48.898;8.308;2023-07-13T03:08:30;100275.88;;;17.51;100.00
15634;BME280;14654;48.898;8.308;2023-07-13T03:11:07;100274.34;;;17.46;100.00
15634;BME280;14654;48.898;8.308;2023-07-13T03:13:33;100282.59;;;17.35;100.00
15634;BME280;14654;48.898;8.308;2023-07-13T03:15:58;100285.44;;;17.29;100.00
15634;BME280;14654;48.898;8.308;2023-07-13T03:18:26;100289.06;;;17.25;100.00
15634;BME280;14654;48.898;8.308;2023-07-13T03:20:52;100294.44;;;17.21;100.00
15634;BME280;14654;48.898;8.308;2023-07-13T03:23:18;100295.34;;;17.20;100.00
15634;BME280;14654;48.898;8.308;2023-07-13T03:25:44;100291.84;;;17.20;100.00
15634;BME280;14654;48.898;8.308;2023-07-13T03:28:10;100294.56;;;17.17;100.00
15634;BME280;14654;48.898;8.308;2023-07-13T03:30:36;100299.03;;;17.15;100.00
15634;BME280;14654;48.898;8.308;2023-07-13T03:33:01;100299.88;;;17.15;100.00
15634;BME280;14654;48.898;8.308;2023-07-13T03:35:27;100307.59;;;17.18;100.00
15634;BME280;14654;48.898;8.308;2023-07-13T03:37:52;100303.28;;;17.17;100.00
15634;BME280;14654;48.898;8.308;2023-07-13T03:40:17;100302.41;;;17.17;100.00
15634;BME280;14654;48.898;8.308;2023-07-13T03:42:43;100298.06;;;17.17;100.00
15634;BME280;14654;48.898;8.308;2023-07-13T03:45:08;100305.91;;;17.17;100.00
15634;BME280;14654;48.898;8.308;2023-07-13T03:47:34;100306.88;;;17.15;100.00
15634;BME280;14654;48.898;8.308;2023-07-13T03:49:59;100300.75;;;17.16;100.00
15634;BME280;14654;48.898;8.308;2023-07-13T03:52:24;100306.72;;;17.18;100.00
15634;BME280;14654;48.898;8.308;2023-07-13T03:54:49;100311.06;;;17.19;100.00
15634;BME280;14654;48.898;8.308;2023-07-13T03:57:15;100311.88;;;17.21;100.00
15634;BME280;14654;48.898;8.308;2023-07-13T03:59:40;100317.91;;;17.23;100.00
15634;BME280;14654;48.898;8.308;2023-07-13T04:02:05;100317.81;;;17.25;100.00
15634;BME280;14654;48.898;8.308;2023-07-13T04:04:31;100314.19;;;17.29;100.00
15634;BME280;14654;48.898;8.308;2023-07-13T04:06:59;100314.91;;;17.34;100.00
15634;BME280;14654;48.898;8.308;2023-07-13T04:09:25;100319.16;;;17.36;100.00
15634;BME280;14654;48.898;8.308;2023-07-13T04:11:50;100314.53;;;17.43;100.00
15634;BME280;14654;48.898;8.308;2023-07-13T04:14:16;100315.22;;;17.48;100.00
15634;BME280;14654;48.898;8.308;2023-07-13T04:16:41;100311.59;;;17.52;100.00
15634;BME280;14654;48.898;8.308;2023-07-13T04:19:08;100312.38;;;17.55;100.00
15634;BME280;14654;48.898;8.308;2023-07-13T04:21:33;100318.38;;;17.58;100.00
15634;BME280;14654;48.898;8.308;2023-07-13T04:23:58;100325.16;;;17.62;100.00
15634;BME280;14654;48.898;8.308;2023-07-13T04:26:24;100317.09;;;17.68;100.00
15634;BME280;14654;48.898;8.308;2023-07-13T04:28:51;100315.09;;;17.75;100.00
15634;BME280;14654;48.898;8.308;2023-07-13T04:31:16;100317.53;;;17.80;100.00
15634;BME280;14654;48.898;8.308;2023-07-13T04:33:42;100319.00;;;17.87;100.00
15634;BME280;14654;48.898;8.308;2023-07-13T04:36:08;100328.22;;;17.97;100.00
15634;BME280;14654;48.898;8.308;2023-07-13T04:38:35;100335.75;;;18.07;100.00
15634;BME280;14654;48.898;8.308;2023-07-13T04:41:03;100330.81;;;18.21;100.00
15634;BME280;14654;48.898;8.308;2023-07-13T04:43:29;100343.41;;;18.34;99.33
15634;BME280;14654;48.898;8.308;2023-07-13T04:45:56;100345.22;;;18.54;98.07
15634;BME280;14654;48.898;8.308;2023-07-13T04:48:21;100342.72;;;18.92;97.03
15634;BME280;14654;48.898;8.308;2023-07-13T04:50:47;100345.00;;;19.41;95.62
15634;BME280;14654;48.898;8.308;2023-07-13T04:53:13;100342.94;;;19.88;94.63
15634;BME280;14654;48.898;8.308;2023-07-13T04:55:38;100345.50;;;20.44;93.29
15634;BME280;14654;48.898;8.308;2023-07-13T04:58:04;100351.66;;;20.97;90.73
15634;BME280;14654;48.898;8.308;2023-07-13T05:00:30;100346.22;;;21.17;89.04
15634;BME280;14654;48.898;8.308;2023-07-13T05:02:57;100350.78;;;21.14;88.47
15634;BME280;14654;48.898;8.308;2023-07-13T05:05:24;100346.94;;;21.04;88.13
15634;BME280;14654;48.898;8.308;2023-07-13T05:07:49;100344.94;;;20.91;88.28
15634;BME280;14654;48.898;8.308;2023-07-13T05:10:15;100343.53;;;20.84;88.22
15634;BME280;14654;48.898;8.308;2023-07-13T05:12:40;100347.41;;;20.77;88.44
15634;BME280;14654;48.898;8.308;2023-07-13T05:15:06;100349.63;;;20.67;88.27
15634;BME280;14654;48.898;8.308;2023-07-13T05:17:31;100359.66;;;20.59;87.80
15634;BME280;14654;48.898;8.308;2023-07-13T05:19:57;100352.25;;;20.49;87.41
15634;BME280;14654;48.898;8.308;2023-07-13T05:22:22;100355.47;;;20.37;87.41
15634;BME280;14654;48.898;8.308;2023-07-13T05:24:47;100350.47;;;20.32;87.43
15634;BME280;14654;48.898;8.308;2023-07-13T05:27:13;100354.25;;;20.44;88.19
15634;BME280;14654;48.898;8.308;2023-07-13T05:29:38;100354.19;;;20.63;87.72
15634;BME280;14654;48.898;8.308;2023-07-13T05:32:04;100358.00;;;20.75;87.88
15634;BME280;14654;48.898;8.308;2023-07-13T05:34:29;100361.63;;;21.08;87.17
15634;BME280;14654;48.898;8.308;2023-07-13T05:36:55;100356.47;;;21.40;86.84
15634;BME280;14654;48.898;8.308;2023-07-13T05:39:20;100359.84;;;22.07;85.39
15634;BME280;14654;48.898;8.308;2023-07-13T05:41:45;100355.22;;;22.74;83.70
15634;BME280;14654;48.898;8.308;2023-07-13T05:44:11;100363.28;;;23.01;82.77
15634;BME280;14654;48.898;8.308;2023-07-13T05:46:36;100359.72;;;23.02;82.60
15634;BME280;14654;48.898;8.308;2023-07-13T05:49:02;100368.34;;;23.35;81.72
15634;BME280;14654;48.898;8.308;2023-07-13T05:51:28;100373.97;;;23.72;79.82
15634;BME280;14654;48.898;8.308;2023-07-13T05:53:53;100369.00;;;24.37;78.18
15634;BME280;14654;48.898;8.308;2023-07-13T05:56:19;100379.31;;;25.20;76.06
15634;BME280;14654;48.898;8.308;2023-07-13T05:58:44;100379.56;;;25.93;73.79
15634;BME280;14654;48.898;8.308;2023-07-13T06:01:14;100379.78;;;26.63;72.13
15634;BME280;14654;48.898;8.308;2023-07-13T06:03:39;100385.69;;;26.55;70.55
15634;BME280;14654;48.898;8.308;2023-07-13T06:06:06;100392.09;;;26.28;70.47
15634;BME280;14654;48.898;8.308;2023-07-13T06:08:32;100384.25;;;25.90;69.58
15634;BME280;14654;48.898;8.308;2023-07-13T06:13:36;100388.97;;;25.60;69.15
15634;BME280;14654;48.898;8.308;2023-07-13T06:16:02;100392.53;;;26.09;68.55
15634;BME280;14654;48.898;8.308;2023-07-13T06:18:33;100396.81;;;26.36;67.41
15634;BME280;14654;48.898;8.308;2023-07-13T06:20:58;100397.63;;;26.85;66.32
15634;BME280;14654;48.898;8.308;2023-07-13T06:23:24;100396.31;;;27.02;65.64
15634;BME280;14654;48.898;8.308;2023-07-13T06:25:50;100402.59;;;26.90;65.76
15634;BME280;14654;48.898;8.308;2023-07-13T06:28:16;100409.97;;;26.73;64.38
15634;BME280;14654;48.898;8.308;2023-07-13T06:30:41;100408.69;;;27.15;64.32
15634;BME280;14654;48.898;8.308;2023-07-13T06:33:06;100406.28;;;27.34;63.96
15634;BME280;14654;48.898;8.308;2023-07-13T06:35:32;100410.16;;;27.76;63.85
15634;BME280;14654;48.898;8.308;2023-07-13T06:37:57;100413.91;;;27.96;63.01
15634;BME280;14654;48.898;8.308;2023-07-13T06:40:23;100410.38;;;28.18;62.55
15634;BME280;14654;48.898;8.308;2023-07-13T06:42:48;100419.72;;;28.45;62.31
15634;BME280;14654;48.898;8.308;2023-07-13T06:45:13;100422.78;;;28.62;62.06
15634;BME280;14654;48.898;8.308;2023-07-13T06:47:39;100430.44;;;28.87;61.61
15634;BME280;14654;48.898;8.308;2023-07-13T06:50:05;100439.25;;;29.30;61.08
15634;BME280;14654;48.898;8.308;2023-07-13T06:52:30;100439.91;;;29.44;61.09
15634;BME280;14654;48.898;8.308;2023-07-13T06:54:55;100443.81;;;29.71;61.29
15634;BME280;14654;48.898;8.308;2023-07-13T06:57:21;100437.28;;;29.85;60.41
15634;BME280;14654;48.898;8.308;2023-07-13T06:59:46;100436.22;;;29.97;60.23
15634;BME280;14654;48.898;8.308;2023-07-13T07:02:12;100432.88;;;30.15;59.31
15634;BME280;14654;48.898;8.308;2023-07-13T07:04:37;100441.59;;;30.17;59.99
15634;BME280;14654;48.898;8.308;2023-07-13T07:07:02;100442.28;;;30.19;60.14
15634;BME280;14654;48.898;8.308;2023-07-13T07:09:28;100448.75;;;30.26;59.90
15634;BME280;14654;48.898;8.308;2023-07-13T07:11:55;100450.03;;;30.41;59.43
15634;BME280;14654;48.898;8.308;2023-07-13T07:14:20;100445.31;;;30.65;59.43
15634;BME280;14654;48.898;8.308;2023-07-13T07:16:46;100447.28;;;30.63;59.91
15634;BME280;14654;48.898;8.308;2023-07-13T07:19:11;100442.34;;;30.68;59.72
15634;BME280;14654;48.898;8.308;2023-07-13T07:21:36;100449.78;;;30.64;59.87
15634;BME280;14654;48.898;8.308;2023-07-13T07:24:02;100448.78;;;30.95;59.10
15634;BME280;14654;48.898;8.308;2023-07-13T07:26:28;100442.47;;;30.96;58.82
15634;BME280;14654;48.898;8.308;2023-07-13T07:28:53;100447.22;;;31.02;59.61
15634;BME280;14654;48.898;8.308;2023-07-13T07:31:19;100447.09;;;30.94;59.99
15634;BME280;14654;48.898;8.308;2023-07-13T07:33:44;100440.19;;;31.01;59.21
15634;BME280;14654;48.898;8.308;2023-07-13T07:36:10;100447.94;;;30.94;59.35
15634;BME280;14654;48.898;8.308;2023-07-13T07:38:36;100458.63;;;31.04;59.40
15634;BME280;14654;48.898;8.308;2023-07-13T07:41:03;100456.66;;;31.06;59.06
15634;BME280;14654;48.898;8.308;2023-07-13T07:43:29;100455.94;;;31.04;58.90
15634;BME280;14654;48.898;8.308;2023-07-13T07:45:55;100457.06;;;31.01;58.42
15634;BME280;14654;48.898;8.308;2023-07-13T07:48:20;100462.97;;;31.05;58.13
15634;BME280;14654;48.898;8.308;2023-07-13T07:50:46;100459.75;;;31.01;57.82
15634;BME280;14654;48.898;8.308;2023-07-13T07:53:11;100458.22;;;30.99;58.05
15634;BME280;14654;48.898;8.308;2023-07-13T07:55:37;100464.28;;;30.91;57.80
15634;BME280;14654;48.898;8.308;2023-07-13T07:58:03;100469.03;;;30.87;58.76
15634;BME280;14654;48.898;8.308;2023-07-13T08:00:28;100463.69;;;30.97;58.24
15634;BME280;14654;48.898;8.308;2023-07-13T08:02:58;100464.94;;;31.03;57.29
15634;BME280;14654;48.898;8.308;2023-07-13T08:05:23;100464.13;;;31.22;56.17
15634;BME280;14654;48.898;8.308;2023-07-13T08:07:49;100470.31;;;31.13;56.73
15634;BME280;14654;48.898;8.308;2023-07-13T08:10:14;100478.19;;;30.75;55.35
15634;BME280;14654;48.898;8.308;2023-07-13T08:12:40;100476.16;;;30.28;54.17
15634;BME280;14654;48.898;8.308;2023-07-13T08:15:09;100470.00;;;29.56;55.47
15634;BME280;14654;48.898;8.308;2023-07-13T08:17:35;100455.47;;;29.70;56.87
15634;BME280;14654;48.898;8.308;2023-07-13T08:20:00;100454.94;;;29.76;56.69
15634;BME280;14654;48.898;8.308;2023-07-13T08:22:26;100462.69;;;29.58;56.45
15634;BME280;14654;48.898;8.308;2023-07-13T08:24:52;100467.59;;;29.31;51.85
15634;BME280;14654;48.898;8.308;2023-07-13T08:27:22;100462.94;;;29.76;52.66
15634;BME280;14654;48.898;8.308;2023-07-13T08:29:48;100459.25;;;29.67;53.80
15634;BME280;14654;48.898;8.308;2023-07-13T08:32:14;100458.19;;;29.89;54.92
15634;BME280;14654;48.898;8.308;2023-07-13T08:34:39;100466.56;;;30.06;54.78
15634;BME280;14654;48.898;8.308;2023-07-13T08:37:06;100465.75;;;30.25;53.48
15634;BME280;14654;48.898;8.308;2023-07-13T08:39:31;100461.59;;;30.71;49.83
15634;BME280;14654;48.898;8.308;2023-07-13T08:42:29;100460.00;;;30.39;50.57
15634;BME280;14654;48.898;8.308;2023-07-13T08:47:30;100459.88;;;30.21;53.09
15634;BME280;14654;48.898;8.308;2023-07-13T08:49:58;100458.19;;;29.89;54.49
15634;BME280;14654;48.898;8.308;2023-07-13T08:52:35;100453.06;;;30.07;55.02
15634;BME280;14654;48.898;8.308;2023-07-13T08:55:24;100458.00;;;30.12;53.77
15634;BME280;14654;48.898;8.308;2023-07-13T08:58:10;100458.19;;;29.89;52.26
15634;BME280;14654;48.898;8.308;2023-07-13T09:01:41;100453.03;;;29.57;52.46
15634;BME280;14654;48.898;8.308;2023-07-13T09:04:08;100457.91;;;29.30;52.25
15634;BME280;14654;48.898;8.308;2023-07-13T09:07:03;100454.34;;;28.99;52.88
15634;BME280;14654;48.898;8.308;2023-07-13T09:14:56;100451.03;;;28.53;53.69
15634;BME280;14654;48.898;8.308;2023-07-13T09:17:41;100456.78;;;28.25;53.22
15634;BME280;14654;48.898;8.308;2023-07-13T09:23:19;100452.31;;;28.26;54.29
15634;BME280;14654;48.898;8.308;2023-07-13T09:25:51;100452.53;;;28.34;55.44
15634;BME280;14654;48.898;8.308;2023-07-13T09:28:29;100447.25;;;28.23;56.33
15634;BME280;14654;48.898;8.308;2023-07-13T09:31:06;100451.06;;;28.30;55.89
15634;BME280;14654;48.898;8.308;2023-07-13T09:33:32;100452.03;;;28.40;55.86
15634;BME280;14654;48.898;8.308;2023-07-13T09:35:58;100445.31;;;28.13;54.19
15634;BME280;14654;48.898;8.308;2023-07-13T09:38:27;100443.56;;;28.35;54.86
15634;BME280;14654;48.898;8.308;2023-07-13T09:41:04;100449.81;;;28.45;54.57
15634;BME280;14654;48.898;8.308;2023-07-13T09:43:36;100448.47;;;28.51;52.60
15634;BME280;14654;48.898;8.308;2023-07-13T09:46:02;100455.16;;;28.45;53.38
15634;BME280;14654;48.898;8.308;2023-07-13T09:48:34;100450.28;;;28.51;53.88
15634;BME280;14654;48.898;8.308;2023-07-13T09:51:10;100454.81;;;28.39;54.18
15634;BME280;14654;48.898;8.308;2023-07-13T09:53:38;100452.59;;;28.11;54.53
15634;BME280;14654;48.898;8.308;2023-07-13T09:56:19;100453.78;;;28.19;54.83
15634;BME280;14654;48.898;8.308;2023-07-13T09:58:44;100451.84;;;28.21;54.54
15634;BME280;14654;48.898;8.308;2023-07-13T10:01:09;100444.69;;;28.33;54.09
15634;BME280;14654;48.898;8.308;2023-07-13T10:03:35;100443.50;;;28.14;53.06
15634;BME280;14654;48.898;8.308;2023-07-13T10:06:13;100448.97;;;28.12;53.62
15634;BME280;14654;48.898;8.308;2023-07-13T10:08:39;100443.88;;;27.98;54.48
15634;BME280;14654;48.898;8.308;2023-07-13T10:11:22;100445.19;;;28.04;53.58
15634;BME280;14654;48.898;8.308;2023-07-13T10:13:55;100448.09;;;28.12;55.19
15634;BME280;14654;48.898;8.308;2023-07-13T10:16:22;100438.75;;;28.29;54.67
15634;BME280;14654;48.898;8.308;2023-07-13T10:18:48;100446.22;;;28.35;54.97
15634;BME280;14654;48.898;8.308;2023-07-13T10:21:22;100438.25;;;28.35;54.51
15634;BME280;14654;48.898;8.308;2023-07-13T10:23:52;100448.03;;;28.46;53.99
15634;BME280;14654;48.898;8.308;2023-07-13T10:26:32;100451.34;;;28.04;54.86
15634;BME280;14654;48.898;8.308;2023-07-13T10:29:04;100443.88;;;27.87;55.78
15634;BME280;14654;48.898;8.308;2023-07-13T10:31:32;100445.47;;;27.66;55.85
15634;BME280;14654;48.898;8.308;2023-07-13T10:33:59;100442.44;;;27.71;55.60
15634;BME280;14654;48.898;8.308;2023-07-13T10:36:34;100440.50;;;27.73;56.14
15634;BME280;14654;48.898;8.308;2023-07-13T10:39:04;100436.75;;;27.76;55.15
15634;BME280;14654;48.898;8.308;2023-07-13T10:41:35;100442.66;;;27.57;54.96
15634;BME280;14654;48.898;8.308;2023-07-13T10:44:04;100432.78;;;27.00;54.91
15634;BME280;14654;48.898;8.308;2023-07-13T10:46:30;100432.72;;;27.24;54.45
15634;BME280;14654;48.898;8.308;2023-07-13T10:48:59;100431.78;;;27.37;55.53
15634;BME280;14654;48.898;8.308;2023-07-13T10:51:27;100441.56;;;27.48;55.46
15634;BME280;14654;48.898;8.308;2023-07-13T10:56:45;100440.34;;;27.41;54.44
15634;BME280;14654;48.898;8.308;2023-07-13T10:59:15;100435.88;;;27.41;54.69
15634;BME280;14654;48.898;8.308;2023-07-13T11:04:45;100431.91;;;27.47;55.73
15634;BME280;14654;48.898;8.308;2023-07-13T11:07:21;100433.84;;;27.45;54.99
15634;BME280;14654;48.898;8.308;2023-07-13T11:09:52;100428.78;;;27.53;55.79
15634;BME280;14654;48.898;8.308;2023-07-13T11:22:51;100416.34;;;27.65;56.48
15634;BME280;14654;48.898;8.308;2023-07-13T11:25:28;100421.88;;;27.84;56.06
15634;BME280;14654;48.898;8.308;2023-07-13T11:30:46;100420.50;;;28.24;55.73
15634;BME280;14654;48.898;8.308;2023-07-13T11:33:19;100423.97;;;28.36;55.46
15634;BME280;14654;48.898;8.308;2023-07-13T11:38:20;100425.31;;;28.63;54.37
15634;BME280;14654;48.898;8.308;2023-07-13T11:40:48;100419.13;;;28.74;53.87
15634;BME280;14654;48.898;8.308;2023-07-13T11:43:15;100426.00;;;28.77;52.76
15634;BME280;14654;48.898;8.308;2023-07-13T11:45:45;100421.88;;;28.84;53.43
15634;BME280;14654;48.898;8.308;2023-07-13T11:48:18;100424.91;;;29.00;54.12
15634;BME280;14654;48.898;8.308;2023-07-13T11:50:51;100421.59;;;29.08;53.25
15634;BME280;14654;48.898;8.308;2023-07-13T11:53:16;100418.00;;;28.77;52.62
15634;BME280;14654;48.898;8.308;2023-07-13T11:55:42;100416.63;;;28.28;51.56
15634;BME280;14654;48.898;8.308;2023-07-13T11:58:09;100404.78;;;28.54;53.17
15634;BME280;14654;48.898;8.308;2023-07-13T12:00:37;100405.03;;;28.83;53.30
15634;BME280;14654;48.898;8.308;2023-07-13T12:03:03;100405.66;;;28.97;54.78
15634;BME280;14654;48.898;8.308;2023-07-13T12:05:30;100399.94;;;29.23;54.03
15634;BME280;14654;48.898;8.308;2023-07-13T12:07:56;100402.91;;;29.29;52.28
15634;BME280;14654;48.898;8.308;2023-07-13T12:12:51;100406.91;;;29.35;50.78
15634;BME280;14654;48.898;8.308;2023-07-13T12:15:17;100404.72;;;29.29;51.90
15634;BME280;14654;48.898;8.308;2023-07-13T12:17:42;100396.34;;;29.33;51.86
15634;BME280;14654;48.898;8.308;2023-07-13T12:20:26;100403.63;;;29.53;53.08
15634;BME280;14654;48.898;8.308;2023-07-13T12:22:52;100394.69;;;29.63;52.37
15634;BME280;14654;48.898;8.308;2023-07-13T12:25:19;100394.03;;;29.40;50.81
15634;BME280;14654;48.898;8.308;2023-07-13T12:27:49;100399.16;;;29.63;51.41
15634;BME280;14654;48.898;8.308;2023-07-13T12:30:25;100397.09;;;29.76;50.72
15634;BME280;14654;48.898;8.308;2023-07-13T12:33:05;100390.66;;;29.89;50.41
15634;BME280;14654;48.898;8.308;2023-07-13T12:35:40;100406.16;;;30.05;51.07
15634;BME280;14654;48.898;8.308;2023-07-13T12:38:10;100395.06;;;30.00;50.37
15634;BME280;14654;48.898;8.308;2023-07-13T12:40:37;100399.84;;;30.06;50.32
15634;BME280;14654;48.898;8.308;2023-07-13T12:43:03;100398.47;;;30.11;50.10
15634;BME280;14654;48.898;8.308;2023-07-13T12:45:30;100395.59;;;29.93;51.23
15634;BME280;14654;48.898;8.308;2023-07-13T12:47:58;100398.97;;;29.95;50.59
15634;BME280;14654;48.898;8.308;2023-07-13T12:50:34;100398.53;;;29.90;50.30
15634;BME280;14654;48.898;8.308;2023-07-13T12:53:03;100407.63;;;29.78;49.93
15634;BME280;14654;48.898;8.308;2023-07-13T12:55:29;100404.31;;;29.55;50.02
15634;BME280;14654;48.898;8.308;2023-07-13T12:57:59;100412.81;;;28.96;49.50
15634;BME280;14654;48.898;8.308;2023-07-13T13:00:33;100410.28;;;29.16;50.53
15634;BME280;14654;48.898;8.308;2023-07-13T13:03:12;100403.03;;;29.28;50.58
15634;BME280;14654;48.898;8.308;2023-07-13T13:05:44;100416.00;;;29.32;50.76
15634;BME280;14654;48.898;8.308;2023-07-13T13:08:13;100409.63;;;29.24;50.54
15634;BME280;14654;48.898;8.308;2023-07-13T13:10:39;100413.31;;;29.32;50.54
15634;BME280;14654;48.898;8.308;2023-07-13T13:13:04;100412.69;;;29.40;51.15
15634;BME280;14654;48.898;8.308;2023-07-13T13:15:30;100411.16;;;29.47;50.75
15634;BME280;14654;48.898;8.308;2023-07-13T13:17:56;100402.50;;;29.34;50.45
15634;BME280;14654;48.898;8.308;2023-07-13T13:20:23;100407.78;;;29.24;50.86
15634;BME280;14654;48.898;8.308;2023-07-13T13:22:50;100405.22;;;28.92;49.44
15634;BME280;14654;48.898;8.308;2023-07-13T13:25:18;100404.03;;;29.05;50.55
15634;BME280;14654;48.898;8.308;2023-07-13T13:27:44;100395.78;;;29.09;49.96